sensor_id;sensor_type;location;lat;lon;timestamp;temperature;humidity
31639;DHT22;18248;51.522;7.020;2023-03-01T00:00:14;1.40;99.90
31639;DHT22;18248;51.522;7.020;2023-03-01T00:03:13;1.40;99.90
31639;DHT22;18248;51.522;7.020;2023-03-01T00:06:11;1.30;99.90
31639;DHT22;18248;51.522;7.020;2023-03-01T00:09:10;1.30;99.90
31639;DHT22;18248;51.522;7.020;2023-03-01T00:12:08;1.30;99.90
31639;DHT22;18248;51.522;7.020;2023-03-01T00:15:08;1.30;99.90
31639;DHT22;18248;51.522;7.020;2023-03-01T00:18:07;1.20;99.90
31639;DHT22;18248;51.522;7.020;2023-03-01T00:21:06;1.20;99.90
31639;DHT22;18248;51.522;7.020;2023-03-01T00:24:05;1.20;99.90
31639;DHT22;18248;51.522;7.020;2023-03-01T00:27:03;1.20;99.90
31639;DHT22;18248;51.522;7.020;2023-03-01T00:30:02;1.20;99.90
31639;DHT22;18248;51.522;7.020;2023-03-01T00:33:02;1.20;99.90
31639;DHT22;18248;51.522;7.020;2023-03-01T00:36:01;1.20;99.90
31639;DHT22;18248;51.522;7.020;2023-03-01T00:39:01;1.10;99.90
31639;DHT22;18248;51.522;7.020;2023-03-01T00:42:00;1.10;99.90
31639;DHT22;18248;51.522;7.020;2023-03-01T00:44:58;1.10;99.90
31639;DHT22;18248;51.522;7.020;2023-03-01T00:47:57;1.10;99.90
31639;DHT22;18248;51.522;7.020;2023-03-01T00:50:55;1.00;99.90
31639;DHT22;18248;51.522;7.020;2023-03-01T00:53:55;1.10;99.90
31639;DHT22;18248;51.522;7.020;2023-03-01T00:56:55;1.00;99.90
31639;DHT22;18248;51.522;7.020;2023-03-01T00:59:53;1.00;99.90
31639;DHT22;18248;51.522;7.020;2023-03-01T01:02:52;1.00;99.90
31639;DHT22;18248;51.522;7.020;2023-03-01T01:05:52;0.90;99.90
31639;DHT22;18248;51.522;7.020;2023-03-01T01:08:52;0.90;99.90
31639;DHT22;18248;51.522;7.020;2023-03-01T01:11:52;0.90;99.90
31639;DHT22;18248;51.522;7.020;2023-03-01T01:14:51;0.90;99.90
31639;DHT22;18248;51.522;7.020;2023-03-01T01:17:51;0.90;99.90
31639;DHT22;18248;51.522;7.020;2023-03-01T01:20:49;0.80;99.90
31639;DHT22;18248;51.522;7.020;2023-03-01T01:23:48;0.80;99.90
31639;DHT22;18248;51.522;7.020;2023-03-01T01:26:47;0.80;99.90
31639;DHT22;18248;51.522;7.020;2023-03-01T01:29:45;0.80;99.90
31639;DHT22;18248;51.522;7.020;2023-03-01T01:32:44;0.80;99.90
31639;DHT22;18248;51.522;7.020;2023-03-01T01:35:45;0.70;99.90
31639;DHT22;18248;51.522;7.020;2023-03-01T01:38:44;0.70;99.90
31639;DHT22;18248;51.522;7.020;2023-03-01T01:41:42;0.70;99.90
31639;DHT22;18248;51.522;7.020;2023-03-01T01:44:44;0.60;99.90
31639;DHT22;18248;51.522;7.020;2023-03-01T01:47:43;0.60;99.90
31639;DHT22;18248;51.522;7.020;2023-03-01T01:50:54;0.60;99.90
31639;DHT22;18248;51.522;7.020;2023-03-01T01:53:59;0.50;99.90
31639;DHT22;18248;51.522;7.020;2023-03-01T01:57:01;0.50;99.90
31639;DHT22;18248;51.522;7.020;2023-03-01T02:00:08;0.50;99.90
31639;DHT22;18248;51.522;7.020;2023-03-01T02:03:19;0.50;99.90
31639;DHT22;18248;51.522;7.020;2023-03-01T02:09:27;0.50;99.90
31639;DHT22;18248;51.522;7.020;2023-03-01T02:12:26;0.40;99.90
31639;DHT22;18248;51.522;7.020;2023-03-01T02:15:25;0.40;99.90
31639;DHT22;18248;51.522;7.020;2023-03-01T02:18:25;0.40;99.90
31639;DHT22;18248;51.522;7.020;2023-03-01T02:21:30;0.40;99.90
31639;DHT22;18248;51.522;7.020;2023-03-01T02:31:09;0.30;99.90
31639;DHT22;18248;51.522;7.020;2023-03-01T02:34:28;0.30;99.90
31639;DHT22;18248;51.522;7.020;2023-03-01T02:37:28;0.30;99.90
31639;DHT22;18248;51.522;7.020;2023-03-01T02:40:29;0.20;99.90
31639;DHT22;18248;51.522;7.020;2023-03-01T02:43:31;0.20;99.90
31639;DHT22;18248;51.522;7.020;2023-03-01T02:46:31;0.20;99.90
31639;DHT22;18248;51.522;7.020;2023-03-01T02:49:32;0.20;99.90
31639;DHT22;18248;51.522;7.020;2023-03-01T02:52:45;0.10;99.90
31639;DHT22;18248;51.522;7.020;2023-03-01T02:55:46;0.00;99.90
31639;DHT22;18248;51.522;7.020;2023-03-01T02:58:45;0.00;99.90
31639;DHT22;18248;51.522;7.020;2023-03-01T03:01:46;-0.10;99.90
31639;DHT22;18248;51.522;7.020;2023-03-01T03:04:44;-0.20;99.90
31639;DHT22;18248;51.522;7.020;2023-03-01T03:07:45;-0.10;99.90
31639;DHT22;18248;51.522;7.020;2023-03-01T03:10:43;-0.10;99.90
31639;DHT22;18248;51.522;7.020;2023-03-01T03:13:43;-0.20;99.90
31639;DHT22;18248;51.522;7.020;2023-03-01T03:16:47;-0.20;99.90
31639;DHT22;18248;51.522;7.020;2023-03-01T03:19:45;-0.10;99.90
31639;DHT22;18248;51.522;7.020;2023-03-01T03:22:49;-0.20;99.90
31639;DHT22;18248;51.522;7.020;2023-03-01T03:25:50;-0.20;99.90
31639;DHT22;18248;51.522;7.020;2023-03-01T03:28:53;-0.20;99.90
31639;DHT22;18248;51.522;7.020;2023-03-01T03:31:52;-0.30;99.90
31639;DHT22;18248;51.522;7.020;2023-03-01T03:34:51;-0.30;99.90
31639;DHT22;18248;51.522;7.020;2023-03-01T03:37:49;-0.40;99.90
31639;DHT22;18248;51.522;7.020;2023-03-01T03:41:03;-0.40;99.90
31639;DHT22;18248;51.522;7.020;2023-03-01T03:44:02;-0.50;99.90
31639;DHT22;18248;51.522;7.020;2023-03-01T03:47:00;-0.50;99.90
31639;DHT22;18248;51.522;7.020;2023-03-01T03:49:59;-0.50;99.90
31639;DHT22;18248;51.522;7.020;2023-03-01T03:52:59;-0.50;99.90
31639;DHT22;18248;51.522;7.020;2023-03-01T03:55:59;-0.50;99.90
31639;DHT22;18248;51.522;7.020;2023-03-01T03:58:58;-0.60;99.90
31639;DHT22;18248;51.522;7.020;2023-03-01T04:01:56;-0.60;99.90
31639;DHT22;18248;51.522;7.020;2023-03-01T04:04:55;-0.70;99.90
31639;DHT22;18248;51.522;7.020;2023-03-01T04:07:53;-0.70;99.90
31639;DHT22;18248;51.522;7.020;2023-03-01T04:11:03;-0.70;99.90
31639;DHT22;18248;51.522;7.020;2023-03-01T04:14:22;-0.70;99.90
31639;DHT22;18248;51.522;7.020;2023-03-01T04:17:21;-0.80;99.90
31639;DHT22;18248;51.522;7.020;2023-03-01T04:20:21;-0.80;99.90
31639;DHT22;18248;51.522;7.020;2023-03-01T04:23:24;-0.80;99.90
31639;DHT22;18248;51.522;7.020;2023-03-01T04:26:23;-0.80;99.90
31639;DHT22;18248;51.522;7.020;2023-03-01T04:29:22;-0.90;99.90
31639;DHT22;18248;51.522;7.020;2023-03-01T04:32:21;-0.90;99.90
31639;DHT22;18248;51.522;7.020;2023-03-01T04:35:20;-0.90;99.90
31639;DHT22;18248;51.522;7.020;2023-03-01T04:38:19;-0.90;99.90
31639;DHT22;18248;51.522;7.020;2023-03-01T04:41:20;-0.90;99.90
31639;DHT22;18248;51.522;7.020;2023-03-01T04:44:19;-0.90;99.90
31639;DHT22;18248;51.522;7.020;2023-03-01T04:47:19;-0.90;99.90
31639;DHT22;18248;51.522;7.020;2023-03-01T04:50:18;-0.90;99.90
31639;DHT22;18248;51.522;7.020;2023-03-01T04:53:18;-0.90;99.90
31639;DHT22;18248;51.522;7.020;2023-03-01T04:56:17;-0.90;99.90
31639;DHT22;18248;51.522;7.020;2023-03-01T04:59:18;-0.90;99.90
31639;DHT22;18248;51.522;7.020;2023-03-01T05:02:20;-1.00;99.90
31639;DHT22;18248;51.522;7.020;2023-03-01T05:05:24;-1.00;99.90
31639;DHT22;18248;51.522;7.020;2023-03-01T05:08:23;-1.00;99.90
31639;DHT22;18248;51.522;7.020;2023-03-01T05:11:22;-1.10;99.90
31639;DHT22;18248;51.522;7.020;2023-03-01T05:14:20;-1.10;99.90
31639;DHT22;18248;51.522;7.020;2023-03-01T05:17:20;-1.20;99.90
31639;DHT22;18248;51.522;7.020;2023-03-01T05:20:18;-1.20;99.90
31639;DHT22;18248;51.522;7.020;2023-03-01T05:23:21;-1.10;99.90
31639;DHT22;18248;51.522;7.020;2023-03-01T05:26:20;-1.10;99.90
31639;DHT22;18248;51.522;7.020;2023-03-01T05:29:21;-1.10;99.90
31639;DHT22;18248;51.522;7.020;2023-03-01T05:32:23;-1.10;99.90
31639;DHT22;18248;51.522;7.020;2023-03-01T05:35:22;-1.20;99.90
31639;DHT22;18248;51.522;7.020;2023-03-01T05:38:21;-1.10;99.90
31639;DHT22;18248;51.522;7.020;2023-03-01T05:41:20;-1.10;99.90
31639;DHT22;18248;51.522;7.020;2023-03-01T05:44:19;-1.10;99.90
31639;DHT22;18248;51.522;7.020;2023-03-01T05:47:19;-1.20;99.90
31639;DHT22;18248;51.522;7.020;2023-03-01T05:50:22;-1.20;99.90
31639;DHT22;18248;51.522;7.020;2023-03-01T05:53:20;-1.20;99.90
31639;DHT22;18248;51.522;7.020;2023-03-01T05:56:19;-1.30;99.90
31639;DHT22;18248;51.522;7.020;2023-03-01T05:59:20;-1.30;99.90
31639;DHT22;18248;51.522;7.020;2023-03-01T06:02:19;-1.30;99.90
31639;DHT22;18248;51.522;7.020;2023-03-01T06:05:18;-1.40;99.90
31639;DHT22;18248;51.522;7.020;2023-03-01T06:08:17;-1.40;99.90
31639;DHT22;18248;51.522;7.020;2023-03-01T06:11:15;-1.30;99.90
31639;DHT22;18248;51.522;7.020;2023-03-01T06:14:14;-1.40;99.90
31639;DHT22;18248;51.522;7.020;2023-03-01T06:17:13;-1.40;99.90
31639;DHT22;18248;51.522;7.020;2023-03-01T06:20:15;-1.50;99.90
31639;DHT22;18248;51.522;7.020;2023-03-01T06:23:13;-1.40;99.90
31639;DHT22;18248;51.522;7.020;2023-03-01T06:26:12;-1.50;99.90
31639;DHT22;18248;51.522;7.020;2023-03-01T06:29:10;-1.40;99.90
31639;DHT22;18248;51.522;7.020;2023-03-01T06:32:09;-1.40;99.90
31639;DHT22;18248;51.522;7.020;2023-03-01T06:35:09;-1.30;99.90
31639;DHT22;18248;51.522;7.020;2023-03-01T06:38:09;-1.30;99.90
31639;DHT22;18248;51.522;7.020;2023-03-01T06:41:07;-1.30;99.90
31639;DHT22;18248;51.522;7.020;2023-03-01T06:44:06;-1.30;99.90
31639;DHT22;18248;51.522;7.020;2023-03-01T06:47:04;-1.30;99.90
31639;DHT22;18248;51.522;7.020;2023-03-01T06:50:03;-1.20;99.90
31639;DHT22;18248;51.522;7.020;2023-03-01T06:53:02;-1.20;99.90
31639;DHT22;18248;51.522;7.020;2023-03-01T06:56:01;-1.20;99.90
31639;DHT22;18248;51.522;7.020;2023-03-01T06:58:59;-1.10;99.90
31639;DHT22;18248;51.522;7.020;2023-03-01T07:01:58;-1.10;99.90
31639;DHT22;18248;51.522;7.020;2023-03-01T07:04:56;-1.10;99.90
31639;DHT22;18248;51.522;7.020;2023-03-01T07:07:55;-1.00;99.90
31639;DHT22;18248;51.522;7.020;2023-03-01T07:10:58;-1.00;99.90
31639;DHT22;18248;51.522;7.020;2023-03-01T07:13:57;-0.90;99.90
31639;DHT22;18248;51.522;7.020;2023-03-01T07:16:56;-0.90;99.90
31639;DHT22;18248;51.522;7.020;2023-03-01T07:19:56;-0.80;99.90
31639;DHT22;18248;51.522;7.020;2023-03-01T07:22:55;-0.70;99.90
31639;DHT22;18248;51.522;7.020;2023-03-01T07:25:57;-0.70;99.90
31639;DHT22;18248;51.522;7.020;2023-03-01T07:28:59;-0.60;99.90
31639;DHT22;18248;51.522;7.020;2023-03-01T07:31:58;-0.60;99.90
31639;DHT22;18248;51.522;7.020;2023-03-01T07:34:57;-0.50;99.90
31639;DHT22;18248;51.522;7.020;2023-03-01T07:37:56;-0.50;99.90
31639;DHT22;18248;51.522;7.020;2023-03-01T07:40:59;-0.40;99.90
31639;DHT22;18248;51.522;7.020;2023-03-01T07:43:58;-0.40;99.90
31639;DHT22;18248;51.522;7.020;2023-03-01T07:46:56;-0.40;99.90
31639;DHT22;18248;51.522;7.020;2023-03-01T07:49:56;-0.30;99.90
31639;DHT22;18248;51.522;7.020;2023-03-01T07:52:54;-0.30;99.90
31639;DHT22;18248;51.522;7.020;2023-03-01T07:56:06;-0.20;99.90
31639;DHT22;18248;51.522;7.020;2023-03-01T07:59:05;-0.10;99.90
31639;DHT22;18248;51.522;7.020;2023-03-01T08:02:04;0.00;99.90
31639;DHT22;18248;51.522;7.020;2023-03-01T08:05:03;0.00;99.90
31639;DHT22;18248;51.522;7.020;2023-03-01T08:08:03;0.10;99.90
31639;DHT22;18248;51.522;7.020;2023-03-01T08:11:05;0.20;99.90
31639;DHT22;18248;51.522;7.020;2023-03-01T08:14:04;0.20;99.90
31639;DHT22;18248;51.522;7.020;2023-03-01T08:17:02;0.30;99.90
31639;DHT22;18248;51.522;7.020;2023-03-01T08:20:01;0.40;99.90
31639;DHT22;18248;51.522;7.020;2023-03-01T08:23:01;0.50;99.90
31639;DHT22;18248;51.522;7.020;2023-03-01T08:26:05;0.60;99.90
31639;DHT22;18248;51.522;7.020;2023-03-01T08:29:04;0.60;99.90
31639;DHT22;18248;51.522;7.020;2023-03-01T08:32:03;0.70;99.90
31639;DHT22;18248;51.522;7.020;2023-03-01T08:35:01;0.80;99.90
31639;DHT22;18248;51.522;7.020;2023-03-01T08:38:00;0.90;99.90
31639;DHT22;18248;51.522;7.020;2023-03-01T08:41:03;1.00;99.90
31639;DHT22;18248;51.522;7.020;2023-03-01T08:44:04;1.00;99.90
31639;DHT22;18248;51.522;7.020;2023-03-01T08:47:04;1.10;99.90
31639;DHT22;18248;51.522;7.020;2023-03-01T08:50:04;1.20;99.90
31639;DHT22;18248;51.522;7.020;2023-03-01T08:53:03;1.30;99.90
31639;DHT22;18248;51.522;7.020;2023-03-01T08:56:01;1.40;99.90
31639;DHT22;18248;51.522;7.020;2023-03-01T08:59:04;1.40;99.90
31639;DHT22;18248;51.522;7.020;2023-03-01T09:02:10;1.50;99.90
31639;DHT22;18248;51.522;7.020;2023-03-01T09:05:10;1.60;99.90
31639;DHT22;18248;51.522;7.020;2023-03-01T09:08:09;1.70;99.90
31639;DHT22;18248;51.522;7.020;2023-03-01T09:11:11;1.80;99.90
31639;DHT22;18248;51.522;7.020;2023-03-01T09:14:10;1.90;99.90
31639;DHT22;18248;51.522;7.020;2023-03-01T09:17:09;2.00;99.90
31639;DHT22;18248;51.522;7.020;2023-03-01T09:20:08;2.10;99.90
31639;DHT22;18248;51.522;7.020;2023-03-01T09:23:07;2.20;99.90
31639;DHT22;18248;51.522;7.020;2023-03-01T09:26:07;2.30;99.90
31639;DHT22;18248;51.522;7.020;2023-03-01T09:29:07;2.40;99.90
31639;DHT22;18248;51.522;7.020;2023-03-01T09:32:08;2.50;99.90
31639;DHT22;18248;51.522;7.020;2023-03-01T09:35:06;2.60;99.90
31639;DHT22;18248;51.522;7.020;2023-03-01T09:38:05;2.70;99.90
31639;DHT22;18248;51.522;7.020;2023-03-01T09:47:40;3.00;99.90
31639;DHT22;18248;51.522;7.020;2023-03-01T09:50:41;3.10;99.90
31639;DHT22;18248;51.522;7.020;2023-03-01T09:53:41;3.20;99.90
31639;DHT22;18248;51.522;7.020;2023-03-01T09:56:44;3.30;99.90
31639;DHT22;18248;51.522;7.020;2023-03-01T09:59:53;3.50;99.90
31639;DHT22;18248;51.522;7.020;2023-03-01T10:06:13;3.70;99.90
31639;DHT22;18248;51.522;7.020;2023-03-01T10:09:17;3.90;99.90
31639;DHT22;18248;51.522;7.020;2023-03-01T10:12:22;4.10;99.90
31639;DHT22;18248;51.522;7.020;2023-03-01T10:15:35;4.30;99.90
31639;DHT22;18248;51.522;7.020;2023-03-01T10:18:37;4.60;99.90
31639;DHT22;18248;51.522;7.020;2023-03-01T10:21:43;4.80;99.90
31639;DHT22;18248;51.522;7.020;2023-03-01T10:24:43;5.00;99.90
31639;DHT22;18248;51.522;7.020;2023-03-01T10:27:51;5.20;99.90
31639;DHT22;18248;51.522;7.020;2023-03-01T10:30:50;5.40;99.90
31639;DHT22;18248;51.522;7.020;2023-03-01T10:33:50;5.60;99.90
31639;DHT22;18248;51.522;7.020;2023-03-01T10:37:17;5.70;99.90
31639;DHT22;18248;51.522;7.020;2023-03-01T10:40:16;5.80;99.90
31639;DHT22;18248;51.522;7.020;2023-03-01T10:43:17;5.90;99.90
31639;DHT22;18248;51.522;7.020;2023-03-01T10:46:35;6.10;99.90
31639;DHT22;18248;51.522;7.020;2023-03-01T10:49:35;6.20;99.90
31639;DHT22;18248;51.522;7.020;2023-03-01T10:52:36;6.40;99.90
31639;DHT22;18248;51.522;7.020;2023-03-01T10:55:39;6.60;99.90
31639;DHT22;18248;51.522;7.020;2023-03-01T10:58:39;6.80;99.90
31639;DHT22;18248;51.522;7.020;2023-03-01T11:01:38;6.90;99.90
31639;DHT22;18248;51.522;7.020;2023-03-01T11:04:39;7.00;99.90
31639;DHT22;18248;51.522;7.020;2023-03-01T11:07:58;7.20;99.90
31639;DHT22;18248;51.522;7.020;2023-03-01T11:11:29;7.40;99.90
31639;DHT22;18248;51.522;7.020;2023-03-01T11:14:35;7.60;99.90
31639;DHT22;18248;51.522;7.020;2023-03-01T11:17:34;7.80;99.90
31639;DHT22;18248;51.522;7.020;2023-03-01T11:20:37;8.00;99.90
31639;DHT22;18248;51.522;7.020;2023-03-01T11:23:37;8.10;99.90
31639;DHT22;18248;51.522;7.020;2023-03-01T11:26:41;8.20;99.90
31639;DHT22;18248;51.522;7.020;2023-03-01T11:29:45;8.30;99.90
31639;DHT22;18248;51.522;7.020;2023-03-01T11:32:58;8.40;99.90
31639;DHT22;18248;51.522;7.020;2023-03-01T11:36:13;8.40;99.90
31639;DHT22;18248;51.522;7.020;2023-03-01T11:39:44;8.50;99.90
31639;DHT22;18248;51.522;7.020;2023-03-01T11:56:43;8.90;99.90
31639;DHT22;18248;51.522;7.020;2023-03-01T12:00:33;8.90;99.90
31639;DHT22;18248;51.522;7.020;2023-03-01T12:03:26;9.10;99.90
31639;DHT22;18248;51.522;7.020;2023-03-01T12:06:47;9.30;99.90
31639;DHT22;18248;51.522;7.020;2023-03-01T12:20:02;9.80;99.90
31639;DHT22;18248;51.522;7.020;2023-03-01T12:36:36;10.10;95.60
31639;DHT22;18248;51.522;7.020;2023-03-01T12:39:58;10.30;95.80
31639;DHT22;18248;51.522;7.020;2023-03-01T12:46:33;10.30;93.00
31639;DHT22;18248;51.522;7.020;2023-03-01T12:49:56;10.40;92.70
31639;DHT22;18248;51.522;7.020;2023-03-01T12:52:57;10.40;94.20
31639;DHT22;18248;51.522;7.020;2023-03-01T12:56:00;10.60;95.90
31639;DHT22;18248;51.522;7.020;2023-03-01T12:59:15;10.70;93.60
31639;DHT22;18248;51.522;7.020;2023-03-01T13:02:25;10.60;91.10
31639;DHT22;18248;51.522;7.020;2023-03-01T13:05:56;10.60;92.40
31639;DHT22;18248;51.522;7.020;2023-03-01T13:09:24;10.70;91.80
31639;DHT22;18248;51.522;7.020;2023-03-01T13:15:43;10.90;92.30
31639;DHT22;18248;51.522;7.020;2023-03-01T13:18:41;10.80;93.00
31639;DHT22;18248;51.522;7.020;2023-03-01T13:21:40;10.90;93.00
31639;DHT22;18248;51.522;7.020;2023-03-01T13:24:40;10.90;93.10
31639;DHT22;18248;51.522;7.020;2023-03-01T13:27:40;10.80;91.20
31639;DHT22;18248;51.522;7.020;2023-03-01T13:30:40;10.70;92.50
31639;DHT22;18248;51.522;7.020;2023-03-01T13:33:44;10.70;92.10
31639;DHT22;18248;51.522;7.020;2023-03-01T13:36:47;10.70;90.90
31639;DHT22;18248;51.522;7.020;2023-03-01T13:39:46;10.70;91.20
31639;DHT22;18248;51.522;7.020;2023-03-01T13:42:55;10.80;92.30
31639;DHT22;18248;51.522;7.020;2023-03-01T13:45:54;11.00;91.60
31639;DHT22;18248;51.522;7.020;2023-03-01T13:48:55;11.10;91.80
31639;DHT22;18248;51.522;7.020;2023-03-01T13:51:54;11.10;90.90
31639;DHT22;18248;51.522;7.020;2023-03-01T13:54:55;11.10;91.00
31639;DHT22;18248;51.522;7.020;2023-03-01T13:57:59;11.20;91.20
31639;DHT22;18248;51.522;7.020;2023-03-01T14:01:02;11.20;90.50
31639;DHT22;18248;51.522;7.020;2023-03-01T14:04:18;11.10;90.30
31639;DHT22;18248;51.522;7.020;2023-03-01T14:10:18;11.20;90.00
31639;DHT22;18248;51.522;7.020;2023-03-01T14:13:38;11.20;89.70
31639;DHT22;18248;51.522;7.020;2023-03-01T14:16:59;11.10;87.80
31639;DHT22;18248;51.522;7.020;2023-03-01T14:20:18;11.00;89.50
31639;DHT22;18248;51.522;7.020;2023-03-01T14:23:22;10.90;88.10
31639;DHT22;18248;51.522;7.020;2023-03-01T14:26:22;10.80;90.00
31639;DHT22;18248;51.522;7.020;2023-03-01T14:29:34;10.80;90.30
31639;DHT22;18248;51.522;7.020;2023-03-01T14:32:34;10.70;90.70
31639;DHT22;18248;51.522;7.020;2023-03-01T14:35:35;10.80;91.10
31639;DHT22;18248;51.522;7.020;2023-03-01T14:38:37;10.70;90.50
31639;DHT22;18248;51.522;7.020;2023-03-01T14:41:35;10.60;90.60
31639;DHT22;18248;51.522;7.020;2023-03-01T14:44:34;10.40;90.80
31639;DHT22;18248;51.522;7.020;2023-03-01T14:47:36;10.30;90.60
31639;DHT22;18248;51.522;7.020;2023-03-01T14:50:41;10.20;91.10
31639;DHT22;18248;51.522;7.020;2023-03-01T14:53:41;10.20;90.60
31639;DHT22;18248;51.522;7.020;2023-03-01T14:56:45;10.10;90.40
31639;DHT22;18248;51.522;7.020;2023-03-01T14:59:44;10.10;91.00
31639;DHT22;18248;51.522;7.020;2023-03-01T15:02:43;10.00;90.90
31639;DHT22;18248;51.522;7.020;2023-03-01T15:05:44;9.90;91.00
31639;DHT22;18248;51.522;7.020;2023-03-01T15:08:47;9.80;91.10
31639;DHT22;18248;51.522;7.020;2023-03-01T15:11:47;9.80;91.20
31639;DHT22;18248;51.522;7.020;2023-03-01T15:14:46;9.70;91.10
31639;DHT22;18248;51.522;7.020;2023-03-01T15:17:52;9.70;90.80
31639;DHT22;18248;51.522;7.020;2023-03-01T15:20:53;9.60;90.90
31639;DHT22;18248;51.522;7.020;2023-03-01T15:27:22;9.50;90.30
31639;DHT22;18248;51.522;7.020;2023-03-01T15:30:29;9.50;90.90
31639;DHT22;18248;51.522;7.020;2023-03-01T15:33:37;9.60;90.90
31639;DHT22;18248;51.522;7.020;2023-03-01T15:36:46;9.50;90.80
31639;DHT22;18248;51.522;7.020;2023-03-01T15:39:55;9.40;90.10
31639;DHT22;18248;51.522;7.020;2023-03-01T15:42:54;9.40;90.70
31639;DHT22;18248;51.522;7.020;2023-03-01T15:45:56;9.30;91.00
31639;DHT22;18248;51.522;7.020;2023-03-01T15:48:58;9.30;90.40
31639;DHT22;18248;51.522;7.020;2023-03-01T15:51:57;9.20;90.70
31639;DHT22;18248;51.522;7.020;2023-03-01T15:55:00;9.10;91.10
31639;DHT22;18248;51.522;7.020;2023-03-01T15:58:00;9.00;90.80
31639;DHT22;18248;51.522;7.020;2023-03-01T16:00:59;8.90;91.20
31639;DHT22;18248;51.522;7.020;2023-03-01T16:03:59;8.80;91.50
31639;DHT22;18248;51.522;7.020;2023-03-01T16:06:58;8.80;91.60
31639;DHT22;18248;51.522;7.020;2023-03-01T16:09:58;8.70;91.80
31639;DHT22;18248;51.522;7.020;2023-03-01T16:12:56;8.70;92.20
31639;DHT22;18248;51.522;7.020;2023-03-01T16:15:55;8.60;92.10
31639;DHT22;18248;51.522;7.020;2023-03-01T16:18:53;8.50;92.50
31639;DHT22;18248;51.522;7.020;2023-03-01T16:21:53;8.50;92.50
31639;DHT22;18248;51.522;7.020;2023-03-01T16:24:51;8.50;92.70
31639;DHT22;18248;51.522;7.020;2023-03-01T16:27:50;8.40;92.80
31639;DHT22;18248;51.522;7.020;2023-03-01T16:30:49;8.40;92.60
31639;DHT22;18248;51.522;7.020;2023-03-01T16:33:49;8.30;92.80
31639;DHT22;18248;51.522;7.020;2023-03-01T16:36:48;8.30;93.20
31639;DHT22;18248;51.522;7.020;2023-03-01T16:39:47;8.20;93.10
31639;DHT22;18248;51.522;7.020;2023-03-01T16:42:48;8.10;93.50
31639;DHT22;18248;51.522;7.020;2023-03-01T16:45:48;8.10;93.80
31639;DHT22;18248;51.522;7.020;2023-03-01T16:48:47;8.00;94.00
31639;DHT22;18248;51.522;7.020;2023-03-01T16:51:45;7.90;94.00
31639;DHT22;18248;51.522;7.020;2023-03-01T16:54:44;7.90;94.10
31639;DHT22;18248;51.522;7.020;2023-03-01T16:57:43;7.80;94.10
31639;DHT22;18248;51.522;7.020;2023-03-01T17:00:41;7.70;94.20
31639;DHT22;18248;51.522;7.020;2023-03-01T17:03:40;7.60;94.50
31639;DHT22;18248;51.522;7.020;2023-03-01T17:06:39;7.60;94.60
31639;DHT22;18248;51.522;7.020;2023-03-01T17:09:38;7.60;95.00
31639;DHT22;18248;51.522;7.020;2023-03-01T17:12:36;7.50;95.00
31639;DHT22;18248;51.522;7.020;2023-03-01T17:15:38;7.40;95.00
31639;DHT22;18248;51.522;7.020;2023-03-01T17:18:37;7.30;95.20
31639;DHT22;18248;51.522;7.020;2023-03-01T17:21:36;7.20;95.50
31639;DHT22;18248;51.522;7.020;2023-03-01T17:24:36;7.20;95.60
31639;DHT22;18248;51.522;7.020;2023-03-01T17:27:38;7.10;95.90
31639;DHT22;18248;51.522;7.020;2023-03-01T17:30:37;7.10;96.20
31639;DHT22;18248;51.522;7.020;2023-03-01T17:33:35;7.00;96.40
31639;DHT22;18248;51.522;7.020;2023-03-01T17:36:34;6.90;96.50
31639;DHT22;18248;51.522;7.020;2023-03-01T17:39:38;6.80;96.80
31639;DHT22;18248;51.522;7.020;2023-03-01T17:42:37;6.80;97.20
31639;DHT22;18248;51.522;7.020;2023-03-01T17:45:37;6.70;97.30
31639;DHT22;18248;51.522;7.020;2023-03-01T17:48:36;6.60;97.60
31639;DHT22;18248;51.522;7.020;2023-03-01T17:51:35;6.60;97.80
31639;DHT22;18248;51.522;7.020;2023-03-01T17:54:33;6.50;98.20
31639;DHT22;18248;51.522;7.020;2023-03-01T17:57:32;6.50;98.60
31639;DHT22;18248;51.522;7.020;2023-03-01T18:00:32;6.40;98.90
31639;DHT22;18248;51.522;7.020;2023-03-01T18:03:31;6.30;99.00
31639;DHT22;18248;51.522;7.020;2023-03-01T18:06:30;6.30;99.40
31639;DHT22;18248;51.522;7.020;2023-03-01T18:09:29;6.30;99.70
31639;DHT22;18248;51.522;7.020;2023-03-01T18:12:29;6.20;99.90
31639;DHT22;18248;51.522;7.020;2023-03-01T18:15:28;6.10;99.90
31639;DHT22;18248;51.522;7.020;2023-03-01T18:18:27;6.10;99.90
31639;DHT22;18248;51.522;7.020;2023-03-01T18:21:29;6.00;99.90
31639;DHT22;18248;51.522;7.020;2023-03-01T18:24:27;6.00;99.90
31639;DHT22;18248;51.522;7.020;2023-03-01T18:27:26;6.00;99.90
31639;DHT22;18248;51.522;7.020;2023-03-01T18:30:26;5.90;99.90
31639;DHT22;18248;51.522;7.020;2023-03-01T18:33:25;5.90;99.90
31639;DHT22;18248;51.522;7.020;2023-03-01T18:36:26;5.80;99.90
31639;DHT22;18248;51.522;7.020;2023-03-01T18:39:25;5.80;99.90
31639;DHT22;18248;51.522;7.020;2023-03-01T18:42:23;5.70;99.90
31639;DHT22;18248;51.522;7.020;2023-03-01T18:45:22;5.60;99.90
31639;DHT22;18248;51.522;7.020;2023-03-01T18:48:20;5.60;99.90
31639;DHT22;18248;51.522;7.020;2023-03-01T18:51:24;5.50;99.90
31639;DHT22;18248;51.522;7.020;2023-03-01T18:54:23;5.50;99.90
31639;DHT22;18248;51.522;7.020;2023-03-01T18:57:22;5.40;99.90
31639;DHT22;18248;51.522;7.020;2023-03-01T19:00:22;5.40;99.90
31639;DHT22;18248;51.522;7.020;2023-03-01T19:03:21;5.40;99.90
31639;DHT22;18248;51.522;7.020;2023-03-01T19:06:20;5.30;99.90
31639;DHT22;18248;51.522;7.020;2023-03-01T19:09:19;5.30;99.90
31639;DHT22;18248;51.522;7.020;2023-03-01T19:12:19;5.20;99.90
31639;DHT22;18248;51.522;7.020;2023-03-01T19:15:19;5.20;99.90
31639;DHT22;18248;51.522;7.020;2023-03-01T19:18:20;5.10;99.90
31639;DHT22;18248;51.522;7.020;2023-03-01T19:21:20;5.10;99.90
31639;DHT22;18248;51.522;7.020;2023-03-01T19:24:19;5.00;99.90
31639;DHT22;18248;51.522;7.020;2023-03-01T19:27:18;5.00;99.90
31639;DHT22;18248;51.522;7.020;2023-03-01T19:30:17;5.00;99.90
31639;DHT22;18248;51.522;7.020;2023-03-01T19:33:15;5.00;99.90
31639;DHT22;18248;51.522;7.020;2023-03-01T19:36:14;5.00;99.90
31639;DHT22;18248;51.522;7.020;2023-03-01T19:39:13;4.90;99.90
31639;DHT22;18248;51.522;7.020;2023-03-01T19:42:11;4.80;99.90
31639;DHT22;18248;51.522;7.020;2023-03-01T19:45:11;4.80;99.90
31639;DHT22;18248;51.522;7.020;2023-03-01T19:48:09;4.80;99.90
31639;DHT22;18248;51.522;7.020;2023-03-01T19:51:08;4.70;99.90
31639;DHT22;18248;51.522;7.020;2023-03-01T19:54:06;4.70;99.90
31639;DHT22;18248;51.522;7.020;2023-03-01T19:57:07;4.70;99.90
31639;DHT22;18248;51.522;7.020;2023-03-01T20:00:06;4.60;99.90
31639;DHT22;18248;51.522;7.020;2023-03-01T20:03:05;4.60;99.90
31639;DHT22;18248;51.522;7.020;2023-03-01T20:06:09;4.60;99.90
31639;DHT22;18248;51.522;7.020;2023-03-01T20:09:08;4.60;99.90
31639;DHT22;18248;51.522;7.020;2023-03-01T20:12:07;4.60;99.90
31639;DHT22;18248;51.522;7.020;2023-03-01T20:15:06;4.50;99.90
31639;DHT22;18248;51.522;7.020;2023-03-01T20:18:06;4.50;99.90
31639;DHT22;18248;51.522;7.020;2023-03-01T20:21:04;4.50;99.90
31639;DHT22;18248;51.522;7.020;2023-03-01T20:24:03;4.40;99.90
31639;DHT22;18248;51.522;7.020;2023-03-01T20:27:02;4.40;99.90